Time;durP1;ratioP1;P1;durP2;ratioP2;P2;SDS_P1;SDS_P2;PMS_P1;PMS_P2;Temp;Humidity;BMP_temperature;BMP_pressure;BME280_temperature;BME280_humidity;BME280_pressure;Samples;Min_cycle;Max_cycle;Signal;HPM_P1;HPM_P2
2022/08/03 00:02:11;;;;;;;6.93;3.15;;;;;;;;;;7312947;19;162902;-20
2022/08/03 00:04:42;;;;;;;5.72;3.40;;;;;;;;;;7313164;19;155030;-15
2022/08/03 00:07:14;;;;;;;8.82;3.10;;;;;;;;;;7311361;19;154324;-16
2022/08/03 00:09:45;;;;;;;7.90;3.00;;;;;;;;;;7317129;19;162742;-16
2022/08/03 00:12:20;;;;;;;6.63;3.17;;;;;;;;;;7314625;19;162789;-16
2022/08/03 00:14:51;;;;;;;8.63;3.08;;;;;;;;;;7314476;19;154821;-16
2022/08/03 00:17:25;;;;;;;5.72;2.90;;;;;;;;;;7315848;19;154641;-16
2022/08/03 00:19:56;;;;;;;9.43;3.25;;;;;;;;;;7313012;19;162190;-17
2022/08/03 00:22:27;;;;;;;6.88;3.08;;;;;;;;;;7314418;19;163422;-16
2022/08/03 00:24:59;;;;;;;6.95;3.10;;;;;;;;;;7314073;19;154695;-15
2022/08/03 00:27:30;;;;;;;7.10;3.45;;;;;;;;;;7309192;19;154205;-16
2022/08/03 00:30:01;;;;;;;6.75;2.95;;;;;;;;;;7313505;19;162324;-16
2022/08/03 00:32:35;;;;;;;7.68;2.90;;;;;;;;;;7314891;19;162825;-16
2022/08/03 00:35:08;;;;;;;6.35;2.95;;;;;;;;;;7310311;19;154839;-16
2022/08/03 00:37:43;;;;;;;4.47;3.28;;;;;;;;;;7314708;19;133277;-16
2022/08/03 00:40:16;;;;;;;5.03;2.88;;;;;;;;;;7310492;19;162797;-16
2022/08/03 00:42:53;;;;;;;9.10;3.03;;;;;;;;;;7311281;19;162851;-16
2022/08/03 00:45:27;;;;;;;11.23;3.38;;;;;;;;;;7310810;19;154628;-16
2022/08/03 00:48:01;;;;;;;3.72;2.45;;;;;;;;;;7316284;19;154112;-16
2022/08/03 00:50:36;;;;;;;6.55;3.20;;;;;;;;;;7310479;19;163389;-16
2022/08/03 00:53:08;;;;;;;5.20;2.88;;;;;;;;;;7311338;19;163096;-17
2022/08/03 00:55:40;;;;;;;3.80;2.75;;;;;;;;;;7312321;19;154564;-16
2022/08/03 00:58:12;;;;;;;4.10;2.67;;;;;;;;;;7309851;19;154661;-16
2022/08/03 01:00:44;;;;;;;3.78;2.72;;;;;;;;;;7308426;19;162725;-16
2022/08/03 01:03:18;;;;;;;6.70;2.85;;;;;;;;;;7313501;19;162832;-16
2022/08/03 01:05:58;;;;;;;6.78;2.80;;;;;;;;;;7314234;19;154532;-17
2022/08/03 01:08:39;;;;;;;6.63;3.03;;;;;;;;;;7313705;19;154009;-16
2022/08/03 01:11:18;;;;;;;4.45;3.20;;;;;;;;;;7310312;19;162232;-16
2022/08/03 01:13:59;;;;;;;6.68;3.63;;;;;;;;;;7313174;19;163268;-16
2022/08/03 01:16:38;;;;;;;7.93;3.20;;;;;;;;;;7316046;19;154164;-17
2022/08/03 01:19:34;;;;;;;8.43;3.10;;;;;;;;;;7314621;19;154478;-16
2022/08/03 01:22:15;;;;;;;6.20;2.70;;;;;;;;;;7313444;19;162647;-16
2022/08/03 01:24:58;;;;;;;5.53;2.60;;;;;;;;;;7315211;19;162774;-16
2022/08/03 01:27:38;;;;;;;4.85;3.10;;;;;;;;;;7315706;19;154503;-16
2022/08/03 01:30:14;;;;;;;5.72;3.15;;;;;;;;;;7314479;19;154276;-17
2022/08/03 01:32:52;;;;;;;8.90;3.42;;;;;;;;;;7313067;19;162563;-16
2022/08/03 01:35:29;;;;;;;8.73;3.72;;;;;;;;;;7313101;19;162897;-16
2022/08/03 01:38:06;;;;;;;5.15;3.33;;;;;;;;;;7313224;19;154611;-17
2022/08/03 01:40:41;;;;;;;4.20;2.83;;;;;;;;;;7315296;19;153615;-17
2022/08/03 01:43:19;;;;;;;4.88;2.85;;;;;;;;;;7312918;19;162275;-16
2022/08/03 01:45:54;;;;;;;2.67;2.47;;;;;;;;;;7312185;19;163227;-16
2022/08/03 01:48:26;;;;;;;5.40;2.80;;;;;;;;;;7314193;19;155242;-16
2022/08/03 01:51:01;;;;;;;5.97;3.28;;;;;;;;;;7312717;19;154027;-17
2022/08/03 01:53:37;;;;;;;7.97;2.88;;;;;;;;;;7312611;19;162219;-17
2022/08/03 01:56:09;;;;;;;6.32;2.85;;;;;;;;;;7312195;19;162706;-17
2022/08/03 01:58:42;;;;;;;8.27;3.20;;;;;;;;;;7311037;19;154670;-16
2022/08/03 02:01:18;;;;;;;6.10;3.10;;;;;;;;;;7314529;19;154019;-17
2022/08/03 02:03:52;;;;;;;7.70;3.20;;;;;;;;;;7312338;19;162197;-16
2022/08/03 02:06:24;;;;;;;4.25;2.60;;;;;;;;;;7312306;19;162796;-16
2022/08/03 02:08:58;;;;;;;5.28;2.85;;;;;;;;;;7313663;19;154598;-16
2022/08/03 02:11:31;;;;;;;5.57;2.92;;;;;;;;;;7313127;19;154390;-17
2022/08/03 02:14:05;;;;;;;6.22;2.90;;;;;;;;;;7312541;19;162694;-16
2022/08/03 02:16:39;;;;;;;6.25;2.70;;;;;;;;;;7310012;19;162884;-16
2022/08/03 02:19:13;;;;;;;4.45;3.22;;;;;;;;;;7311733;19;154497;-16
2022/08/03 02:21:45;;;;;;;;;;;;;;;;;;7310923;19;154090;-16
2022/08/03 02:24:16;;;;;;;4.65;2.78;;;;;;;;;;7311450;19;162449;-16
2022/08/03 02:26:48;;;;;;;8.77;3.17;;;;;;;;;;7310765;19;162861;-17
2022/08/03 02:29:25;;;;;;;4.90;3.08;;;;;;;;;;7312783;19;154572;-16
2022/08/03 02:32:03;;;;;;;4.78;2.70;;;;;;;;;;7312486;19;154010;-16
2022/08/03 02:34:36;;;;;;;5.20;3.50;;;;;;;;;;7309891;19;162579;-17
2022/08/03 02:37:09;;;;;;;4.00;3.00;;;;;;;;;;7311553;19;162883;-17
2022/08/03 02:39:41;;;;;;;;;;;;;;;;;;7313047;19;154508;-16
2022/08/03 02:42:15;;;;;;;3.17;2.67;;;;;;;;;;7312228;19;153674;-16
2022/08/03 02:44:50;;;;;;;3.97;3.15;;;;;;;;;;7311729;19;162955;-16
2022/08/03 02:47:24;;;;;;;3.45;3.15;;;;;;;;;;7310039;19;162802;-17
2022/08/03 02:50:00;;;;;;;4.15;2.60;;;;;;;;;;7312156;19;154549;-16
2022/08/03 02:52:34;;;;;;;4.47;2.65;;;;;;;;;;7310208;19;154273;-16
2022/08/03 02:55:07;;;;;;;4.20;3.00;;;;;;;;;;7311490;19;162281;-18
2022/08/03 02:57:39;;;;;;;5.65;2.80;;;;;;;;;;7311267;19;163636;-16
2022/08/03 03:00:12;;;;;;;2.92;2.63;;;;;;;;;;7312048;19;154486;-16
2022/08/03 03:02:48;;;;;;;4.90;2.80;;;;;;;;;;7314982;19;153666;-16
2022/08/03 03:05:21;;;;;;;3.03;2.72;;;;;;;;;;7317998;19;162771;-16
2022/08/03 03:07:52;;;;;;;2.95;2.75;;;;;;;;;;7314908;19;162863;-16
2022/08/03 03:10:24;;;;;;;4.30;2.67;;;;;;;;;;7318431;19;155150;-16
2022/08/03 03:12:59;;;;;;;3.10;2.80;;;;;;;;;;7318187;19;154111;-16
2022/08/03 03:15:31;;;;;;;5.30;2.70;;;;;;;;;;7317600;19;162404;-16
2022/08/03 03:18:08;;;;;;;3.80;2.70;;;;;;;;;;7317987;19;163341;-16
2022/08/03 03:20:43;;;;;;;4.78;3.10;;;;;;;;;;7318055;19;154502;-16
2022/08/03 03:23:16;;;;;;;2.60;2.38;;;;;;;;;;7316245;19;153950;-16
2022/08/03 03:25:48;;;;;;;4.82;2.90;;;;;;;;;;7317185;19;162641;-16
2022/08/03 03:28:19;;;;;;;3.70;2.40;;;;;;;;;;7315406;19;162891;-16
2022/08/03 03:30:59;;;;;;;2.97;2.67;;;;;;;;;;7317723;19;154485;-16
2022/08/03 03:33:34;;;;;;;3.17;2.88;;;;;;;;;;7316853;19;154533;-16
2022/08/03 03:36:09;;;;;;;3.55;2.97;;;;;;;;;;7316362;19;162359;-16
2022/08/03 03:38:40;;;;;;;5.82;2.60;;;;;;;;;;7317140;19;163258;-16
2022/08/03 03:41:12;;;;;;;4.85;2.70;;;;;;;;;;7317586;19;154756;-16
2022/08/03 03:43:43;;;;;;;6.33;2.90;;;;;;;;;;7317217;19;154179;-16
2022/08/03 03:46:15;;;;;;;3.40;2.73;;;;;;;;;;7316254;19;162510;-16
2022/08/03 03:48:50;;;;;;;3.70;2.65;;;;;;;;;;7314314;19;162776;-16
2022/08/03 03:51:21;;;;;;;3.05;2.40;;;;;;;;;;7317718;19;154425;-16
2022/08/03 03:54:00;;;;;;;4.43;2.80;;;;;;;;;;7316931;19;154469;-16
2022/08/03 03:56:31;;;;;;;3.00;2.45;;;;;;;;;;7316521;19;162833;-16
2022/08/03 03:59:03;;;;;;;5.15;2.97;;;;;;;;;;7316104;19;162891;-16
2022/08/03 04:01:35;;;;;;;5.37;2.97;;;;;;;;;;7317553;19;154057;-16
2022/08/03 04:12:32;;;;;;;3.72;2.63;;;;;;;;;;7316795;19;154611;-16
2022/08/03 04:15:05;;;;;;;3.33;3.00;;;;;;;;;;7314007;19;154484;-16
2022/08/03 04:17:38;;;;;;;3.05;2.75;;;;;;;;;;7315214;19;162668;-17
2022/08/03 04:20:15;;;;;;;2.75;2.55;;;;;;;;;;7315813;19;162953;-16
2022/08/03 04:22:47;;;;;;;3.72;2.65;;;;;;;;;;7316175;19;155097;-16
2022/08/03 04:25:21;;;;;;;2.83;2.55;;;;;;;;;;7316106;19;154060;-17
2022/08/03 04:27:54;;;;;;;2.70;2.50;;;;;;;;;;7314716;19;162819;-16
2022/08/03 04:30:28;;;;;;;6.05;2.90;;;;;;;;;;7315675;19;163175;-16
2022/08/03 04:33:00;;;;;;;4.20;3.00;;;;;;;;;;7315431;19;154509;-16
2022/08/03 04:35:36;;;;;;;3.57;2.80;;;;;;;;;;7315927;19;154006;-17
2022/08/03 04:38:09;;;;;;;3.50;2.40;;;;;;;;;;7315617;19;162614;-16
2022/08/03 04:40:43;;;;;;;4.00;2.60;;;;;;;;;;7314087;19;162878;-16
2022/08/03 04:43:16;;;;;;;3.13;2.75;;;;;;;;;;7315775;19;154614;-16
2022/08/03 04:45:49;;;;;;;3.97;2.50;;;;;;;;;;7315671;19;154028;-16
2022/08/03 04:48:21;;;;;;;3.38;2.47;;;;;;;;;;7313784;19;162260;-16
2022/08/03 04:50:56;;;;;;;2.83;2.40;;;;;;;;;;7314750;19;163175;-17
2022/08/03 04:53:27;;;;;;;3.42;2.65;;;;;;;;;;7315394;19;155593;-16
2022/08/03 04:56:06;;;;;;;3.80;2.75;;;;;;;;;;7315350;19;154392;-17
2022/08/03 04:58:37;;;;;;;3.03;2.72;;;;;;;;;;7313333;19;162350;-16
2022/08/03 05:01:08;;;;;;;3.67;2.65;;;;;;;;;;7315244;19;163250;-16
2022/08/03 05:03:40;;;;;;;3.25;2.50;;;;;;;;;;7315200;19;154907;-16
2022/08/03 05:06:14;;;;;;;3.20;2.60;;;;;;;;;;7314776;19;154000;-16
2022/08/03 05:08:49;;;;;;;2.70;2.50;;;;;;;;;;7313454;19;162461;-16
2022/08/03 05:11:21;;;;;;;5.28;2.83;;;;;;;;;;7312651;19;163246;-16
2022/08/03 05:13:52;;;;;;;3.00;2.47;;;;;;;;;;7314303;19;154406;-16
2022/08/03 05:16:24;;;;;;;2.78;2.45;;;;;;;;;;7313306;19;154493;-16
2022/08/03 05:18:55;;;;;;;4.47;2.60;;;;;;;;;;7314081;19;162697;-16
2022/08/03 05:21:29;;;;;;;3.05;2.63;;;;;;;;;;7314227;19;163323;-16
2022/08/03 05:24:03;;;;;;;4.13;2.70;;;;;;;;;;7314414;19;154499;-15
2022/08/03 05:26:34;;;;;;;4.20;2.92;;;;;;;;;;7314002;19;154341;-16
2022/08/03 05:29:06;;;;;;;5.93;3.58;;;;;;;;;;7312658;19;162224;-16
2022/08/03 05:31:37;;;;;;;5.63;4.00;;;;;;;;;;7314304;19;162811;-16
2022/08/03 05:34:11;;;;;;;7.75;4.20;;;;;;;;;;7312827;19;154551;-16
2022/08/03 05:36:45;;;;;;;5.75;4.65;;;;;;;;;;7314411;19;153926;-16
2022/08/03 05:39:16;;;;;;;9.77;5.38;;;;;;;;;;7313853;19;162222;-16
2022/08/03 05:41:47;;;;;;;8.77;5.13;;;;;;;;;;7313991;19;162890;-16
2022/08/03 05:44:19;;;;;;;9.20;4.95;;;;;;;;;;7314453;19;154562;-16
2022/08/03 05:46:50;;;;;;;14.73;6.00;;;;;;;;;;7311988;19;154919;-16
2022/08/03 05:49:22;;;;;;;7.13;4.82;;;;;;;;;;7311704;19;162299;-17
2022/08/03 05:51:56;;;;;;;9.97;5.10;;;;;;;;;;7310257;19;163610;-16
2022/08/03 05:54:27;;;;;;;10.90;6.15;;;;;;;;;;7312236;19;154859;-17
2022/08/03 05:57:01;;;;;;;14.75;6.93;;;;;;;;;;7313734;19;154044;-17
2022/08/03 05:59:32;;;;;;;18.23;6.60;;;;;;;;;;7313168;19;162161;-16
2022/08/03 06:02:07;;;;;;;10.15;5.70;;;;;;;;;;7313027;19;163205;-16
2022/08/03 06:04:38;;;;;;;11.25;5.93;;;;;;;;;;7313313;19;154554;-16
2022/08/03 06:07:12;;;;;;;10.43;6.88;;;;;;;;;;7313371;19;154260;-16
2022/08/03 06:09:44;;;;;;;11.45;6.43;;;;;;;;;;7311200;19;162463;-17
2022/08/03 06:12:15;;;;;;;12.27;6.43;;;;;;;;;;7311721;19;162727;-16
2022/08/03 06:14:46;;;;;;;9.55;6.20;;;;;;;;;;7313072;19;154461;-16
2022/08/03 06:17:17;;;;;;;10.63;6.47;;;;;;;;;;7312793;19;154533;-16
2022/08/03 06:19:49;;;;;;;10.20;6.38;;;;;;;;;;7312567;19;162182;-16
2022/08/03 06:22:23;;;;;;;9.85;5.40;;;;;;;;;;7312516;19;163502;-17
2022/08/03 06:24:54;;;;;;;10.35;6.30;;;;;;;;;;7312839;19;155065;-16
2022/08/03 06:27:25;;;;;;;7.88;6.22;;;;;;;;;;7312603;19;153954;-16
2022/08/03 06:29:56;;;;;;;8.35;6.05;;;;;;;;;;7310450;19;162263;-16
2022/08/03 06:32:28;;;;;;;11.05;5.80;;;;;;;;;;7311942;19;162912;-16
2022/08/03 06:34:59;;;;;;;6.82;5.85;;;;;;;;;;7309631;19;154130;-16
2022/08/03 06:37:33;;;;;;;11.07;6.05;;;;;;;;;;7310319;19;154400;-16
2022/08/03 06:40:05;;;;;;;9.50;7.07;;;;;;;;;;7311859;19;162716;-16
2022/08/03 06:42:36;;;;;;;10.27;6.33;;;;;;;;;;7310704;19;162899;-17
2022/08/03 06:45:09;;;;;;;10.15;5.75;;;;;;;;;;7312287;19;154422;-17
2022/08/03 06:47:41;;;;;;;7.25;6.15;;;;;;;;;;7311814;19;154297;-15
2022/08/03 06:50:15;;;;;;;9.52;6.57;;;;;;;;;;7309873;19;162885;-16
2022/08/03 06:52:50;;;;;;;9.88;6.63;;;;;;;;;;7311223;19;163276;-16
2022/08/03 06:55:21;;;;;;;9.23;6.65;;;;;;;;;;7312191;19;154434;-16
2022/08/03 06:57:52;;;;;;;7.95;5.82;;;;;;;;;;7312032;19;153853;-16
2022/08/03 07:00:24;;;;;;;9.40;5.57;;;;;;;;;;7311521;19;162699;-16
2022/08/03 07:02:55;;;;;;;8.80;6.35;;;;;;;;;;7311268;19;163198;-16
2022/08/03 07:05:32;;;;;;;6.53;5.75;;;;;;;;;;7311510;19;155068;-16
2022/08/03 07:08:06;;;;;;;8.98;5.93;;;;;;;;;;7311682;19;154552;-16
2022/08/03 07:10:37;;;;;;;8.23;5.38;;;;;;;;;;7309115;19;161841;-16
2022/08/03 07:13:09;;;;;;;8.27;5.60;;;;;;;;;;7310879;19;162922;-16
2022/08/03 07:15:42;;;;;;;7.33;5.50;;;;;;;;;;7311278;19;154520;-16
2022/08/03 07:18:13;;;;;;;7.90;5.47;;;;;;;;;;7311314;19;153990;-15
2022/08/03 07:20:44;;;;;;;7.53;5.10;;;;;;;;;;7310925;19;162381;-15
2022/08/03 07:23:18;;;;;;;9.60;6.20;;;;;;;;;;7309129;19;162869;-16
2022/08/03 07:25:49;;;;;;;9.25;5.95;;;;;;;;;;7309283;19;154532;-16
2022/08/03 07:28:21;;;;;;;9.43;5.43;;;;;;;;;;7309009;19;154085;-16
2022/08/03 07:30:52;;;;;;;8.05;5.30;;;;;;;;;;7308440;19;162292;-15
2022/08/03 07:33:24;;;;;;;8.70;5.07;;;;;;;;;;7309563;19;162820;-16
2022/08/03 07:35:55;;;;;;;7.22;5.75;;;;;;;;;;7310654;19;154928;-16
2022/08/03 07:38:29;;;;;;;9.73;6.47;;;;;;;;;;7310662;19;154570;-16
2022/08/03 07:41:00;;;;;;;6.22;4.93;;;;;;;;;;7308508;19;162323;-15
2022/08/03 07:43:33;;;;;;;15.43;9.52;;;;;;;;;;7310065;19;162906;-16
2022/08/03 07:46:04;;;;;;;8.85;6.63;;;;;;;;;;7309964;19;154641;-16
2022/08/03 07:48:35;;;;;;;7.93;5.63;;;;;;;;;;7311719;19;153976;-15
2022/08/03 07:51:07;;;;;;;8.20;5.78;;;;;;;;;;7314923;19;162208;-15
2022/08/03 07:53:41;;;;;;;7.22;6.07;;;;;;;;;;7316327;19;164161;-18
2022/08/03 07:56:15;;;;;;;7.75;5.45;;;;;;;;;;7316688;19;155112;-15
2022/08/03 07:58:47;;;;;;;6.93;5.68;;;;;;;;;;7316456;19;154005;-16
2022/08/03 08:01:18;;;;;;;7.75;5.03;;;;;;;;;;7316476;19;162323;-16
2022/08/03 08:03:49;;;;;;;9.05;5.63;;;;;;;;;;7315956;19;162938;-17
2022/08/03 08:06:21;;;;;;;6.85;5.60;;;;;;;;;;7316736;19;154587;-17
2022/08/03 08:08:58;;;;;;;8.63;6.00;;;;;;;;;;7314906;19;154653;-17
2022/08/03 08:11:29;;;;;;;7.18;5.63;;;;;;;;;;7314730;19;162559;-17
2022/08/03 08:14:01;;;;;;;9.02;5.63;;;;;;;;;;7315720;19;163276;-16
2022/08/03 08:16:33;;;;;;;7.77;5.40;;;;;;;;;;7316081;19;154807;-17
2022/08/03 08:19:04;;;;;;;7.18;5.15;;;;;;;;;;7315902;19;154014;-15
2022/08/03 08:21:36;;;;;;;11.73;5.97;;;;;;;;;;7315686;19;162312;-16
2022/08/03 08:24:11;;;;;;;7.25;5.63;;;;;;;;;;7315568;19;162913;-15
2022/08/03 08:26:44;;;;;;;8.45;6.30;;;;;;;;;;7315787;19;154580;-16
2022/08/03 08:29:16;;;;;;;10.95;7.25;;;;;;;;;;7315708;19;153956;-15
2022/08/03 08:31:47;;;;;;;10.32;7.13;;;;;;;;;;7313104;19;162782;-15
2022/08/03 08:34:18;;;;;;;10.80;6.93;;;;;;;;;;7313278;19;162828;-16
2022/08/03 08:36:49;;;;;;;11.57;6.80;;;;;;;;;;7315609;19;154460;-16
2022/08/03 08:39:23;;;;;;;10.00;6.45;;;;;;;;;;7315839;19;154043;-22
2022/08/03 08:41:55;;;;;;;10.50;6.68;;;;;;;;;;7313270;19;162705;-16
2022/08/03 08:44:26;;;;;;;13.15;7.47;;;;;;;;;;7314828;19;162878;-16
2022/08/03 08:47:03;;;;;;;11.95;7.05;;;;;;;;;;7315497;19;154948;-16
2022/08/03 08:49:37;;;;;;;11.07;6.22;;;;;;;;;;7315212;19;154160;-16
2022/08/03 08:52:10;;;;;;;12.95;7.10;;;;;;;;;;7312745;19;162683;-15
2022/08/03 08:54:46;;;;;;;13.88;6.15;;;;;;;;;;7314930;19;163220;-15
2022/08/03 08:57:19;;;;;;;11.48;6.20;;;;;;;;;;7315110;19;155498;-16
2022/08/03 09:00:13;;;;;;;;;;;;;;;;;;7314075;19;154539;-15
2022/08/03 09:02:45;;;;;;;7.30;5.85;;;;;;;;;;7314449;19;162438;-16
2022/08/03 09:05:18;;;;;;;15.73;6.05;;;;;;;;;;7314266;19;162803;-17
2022/08/03 09:07:54;;;;;;;10.93;6.68;;;;;;;;;;7314555;19;154466;-16
2022/08/03 09:10:28;;;;;;;10.65;6.32;;;;;;;;;;7314359;19;153953;-17
2022/08/03 09:13:00;;;;;;;10.95;5.72;;;;;;;;;;7313990;19;162370;-16
2022/08/03 09:15:32;;;;;;;10.52;5.43;;;;;;;;;;7314109;19;162960;-17
2022/08/03 09:18:05;;;;;;;8.35;5.55;;;;;;;;;;7314213;19;154568;-17
2022/08/03 09:20:38;;;;;;;8.43;6.03;;;;;;;;;;7314477;19;154290;-16
2022/08/03 09:23:11;;;;;;;8.13;5.68;;;;;;;;;;7312277;19;162270;-17
2022/08/03 09:26:05;;;;;;;12.38;6.18;;;;;;;;;;7313888;19;163369;-16
2022/08/03 09:28:38;;;;;;;11.98;6.05;;;;;;;;;;7312722;19;154572;-16
2022/08/03 09:31:12;;;;;;;12.88;5.93;;;;;;;;;;7313496;19;153999;-16
2022/08/03 09:33:49;;;;;;;9.02;5.13;;;;;;;;;;7310881;19;162329;-16
2022/08/03 09:36:36;;;;;;;7.93;5.72;;;;;;;;;;7313549;19;162909;-16
2022/08/03 09:39:10;;;;;;;17.85;6.13;;;;;;;;;;7312574;19;154610;-16
2022/08/03 09:41:46;;;;;;;8.85;5.55;;;;;;;;;;7313475;19;154028;-16
2022/08/03 09:44:17;;;;;;;13.98;5.82;;;;;;;;;;7313067;19;162241;-16
2022/08/03 09:46:52;;;;;;;10.85;5.43;;;;;;;;;;7313408;19;162823;-16
2022/08/03 09:49:23;;;;;;;12.45;5.68;;;;;;;;;;7313686;19;154868;-16
2022/08/03 09:51:55;;;;;;;13.77;5.82;;;;;;;;;;7312169;19;154053;-16
2022/08/03 09:54:30;;;;;;;13.27;5.50;;;;;;;;;;7313287;19;162222;-16
2022/08/03 09:57:04;;;;;;;10.90;5.60;;;;;;;;;;7313170;19;162881;-16
2022/08/03 09:59:36;;;;;;;7.43;5.00;;;;;;;;;;7313226;19;154497;-16
2022/08/03 10:02:07;;;;;;;8.57;5.28;;;;;;;;;;7313223;19;153951;-15
2022/08/03 10:04:50;;;;;;;11.80;5.10;;;;;;;;;;7312666;19;162218;-16
2022/08/03 10:07:24;;;;;;;15.27;5.40;;;;;;;;;;7311203;19;162820;-17
2022/08/03 10:09:56;;;;;;;17.92;5.35;;;;;;;;;;7312923;19;154490;-16
2022/08/03 10:12:31;;;;;;;24.38;5.30;;;;;;;;;;7308625;19;154032;-16
2022/08/03 10:15:02;;;;;;;11.05;4.60;;;;;;;;;;7312351;19;162378;-15
2022/08/03 10:17:34;;;;;;;14.02;5.47;;;;;;;;;;7311918;19;162789;-15
2022/08/03 10:20:11;;;;;;;10.48;5.05;;;;;;;;;;7312284;19;154643;-15
2022/08/03 10:22:43;;;;;;;9.55;5.28;;;;;;;;;;7312372;19;153915;-15
2022/08/03 10:25:17;;;;;;;14.65;5.30;;;;;;;;;;7310512;19;162183;-15
2022/08/03 10:27:54;;;;;;;6.82;4.80;;;;;;;;;;7310507;19;162876;-15
2022/08/03 10:30:30;;;;;;;10.10;5.00;;;;;;;;;;7312166;19;154461;-15
2022/08/03 10:33:06;;;;;;;13.10;5.30;;;;;;;;;;7309587;19;154582;-15
2022/08/03 10:35:41;;;;;;;13.05;5.20;;;;;;;;;;7311430;19;162191;-15
2022/08/03 10:38:18;;;;;;;10.07;4.80;;;;;;;;;;7309394;19;163488;-15
2022/08/03 10:40:52;;;;;;;7.85;4.72;;;;;;;;;;7311733;19;155166;-16
2022/08/03 10:43:35;;;;;;;10.02;4.93;;;;;;;;;;7311790;19;153958;-15
2022/08/03 10:46:10;;;;;;;10.13;4.35;;;;;;;;;;7311325;19;162227;-15
2022/08/03 10:48:41;;;;;;;8.63;4.15;;;;;;;;;;7311067;19;162752;-16
2022/08/03 10:51:13;;;;;;;4.97;3.95;;;;;;;;;;7311534;19;154607;-16
2022/08/03 10:53:46;;;;;;;8.60;4.28;;;;;;;;;;7308660;19;154031;-16
2022/08/03 10:59:54;;;;;;;7.35;4.32;;;;;;;;;;7310930;19;162810;-15
2022/08/03 11:03:05;;;;;;;5.15;3.65;;;;;;;;;;7309458;19;154614;-16
2022/08/03 11:05:40;;;;;;;9.73;4.47;;;;;;;;;;7309666;19;154186;-16
2022/08/03 11:08:34;;;;;;;6.65;4.43;;;;;;;;;;7310712;19;162832;-15
2022/08/03 11:11:30;;;;;;;9.48;3.97;;;;;;;;;;7310792;19;163357;-16
2022/08/03 11:14:07;;;;;;;6.57;4.10;;;;;;;;;;7308841;19;154400;-16
2022/08/03 11:16:40;;;;;;;5.75;3.53;;;;;;;;;;7310710;19;154566;-16
2022/08/03 11:19:13;;;;;;;7.97;3.85;;;;;;;;;;7310485;19;162217;-16
2022/08/03 11:21:59;;;;;;;;;;;;;;;;;;7311047;19;163435;-15
2022/08/03 11:25:01;;;;;;;9.75;4.00;;;;;;;;;;7316826;19;154556;-16
2022/08/03 11:27:36;;;;;;;7.25;4.00;;;;;;;;;;7317356;19;153982;-15
2022/08/03 11:30:09;;;;;;;5.60;3.60;;;;;;;;;;7316892;19;162556;-16
2022/08/03 11:32:59;;;;;;;7.75;3.90;;;;;;;;;;7314220;19;163305;-15
2022/08/03 11:35:32;;;;;;;5.07;3.75;;;;;;;;;;7316872;19;154586;-15
2022/08/03 11:38:06;;;;;;;5.30;3.47;;;;;;;;;;7317007;19;154105;-15
2022/08/03 11:40:43;;;;;;;5.05;3.85;;;;;;;;;;7316832;19;162760;-15
2022/08/03 11:43:44;;;;;;;6.20;3.67;;;;;;;;;;7316732;19;163886;-16
2022/08/03 11:46:20;;;;;;;5.30;3.20;;;;;;;;;;7317588;19;154044;-16
2022/08/03 11:48:57;;;;;;;6.30;3.85;;;;;;;;;;7315515;19;154089;-15
2022/08/03 11:51:31;;;;;;;6.75;3.58;;;;;;;;;;7316714;19;162958;-15
2022/08/03 11:54:02;;;;;;;;;;;;;;;;;;7314717;19;162773;-16
2022/08/03 11:56:46;;;;;;;8.20;3.40;;;;;;;;;;7316821;19;154501;-15
2022/08/03 11:59:19;;;;;;;5.80;3.58;;;;;;;;;;7316622;19;154521;-16
2022/08/03 12:02:07;;;;;;;5.88;3.15;;;;;;;;;;7316497;19;162321;-16
2022/08/03 12:04:52;;;;;;;5.05;4.07;;;;;;;;;;7315959;19;162843;-16
2022/08/03 12:07:23;;;;;;;6.10;3.42;;;;;;;;;;7316074;19;154959;-16
2022/08/03 12:10:09;;;;;;;8.82;3.50;;;;;;;;;;7316274;19;153828;-15
2022/08/03 12:12:41;;;;;;;4.90;3.20;;;;;;;;;;7315617;19;162374;-15
2022/08/03 12:15:15;;;;;;;5.07;2.95;;;;;;;;;;7314135;19;163285;-16
2022/08/03 12:17:49;;;;;;;4.90;3.10;;;;;;;;;;7316113;19;154485;-16
2022/08/03 12:20:25;;;;;;;5.60;3.35;;;;;;;;;;7315711;19;153965;-16
2022/08/03 12:23:03;;;;;;;6.32;3.67;;;;;;;;;;7315489;19;162176;-16
2022/08/03 12:25:35;;;;;;;3.78;3.25;;;;;;;;;;7315089;19;162851;-16
2022/08/03 12:28:17;;;;;;;6.63;3.38;;;;;;;;;;7315756;19;154577;-16
2022/08/03 12:30:51;;;;;;;6.13;3.22;;;;;;;;;;7315437;19;154893;-15
2022/08/03 12:33:27;;;;;;;5.75;3.05;;;;;;;;;;7313870;19;162276;-16
2022/08/03 12:36:10;;;;;;;3.55;3.25;;;;;;;;;;7313050;19;163203;-15
2022/08/03 12:38:42;;;;;;;4.35;3.03;;;;;;;;;;7314632;19;155116;-16
2022/08/03 12:41:15;;;;;;;4.68;2.88;;;;;;;;;;7315247;19;153958;-15
2022/08/03 12:43:50;;;;;;;4.63;2.90;;;;;;;;;;7314690;19;162323;-15
2022/08/03 12:46:21;;;;;;;4.15;3.25;;;;;;;;;;7313251;19;162410;-16
2022/08/03 12:49:08;;;;;;;6.18;3.17;;;;;;;;;;7315278;19;154504;-16
2022/08/03 12:51:58;;;;;;;7.78;3.15;;;;;;;;;;7315438;19;153974;-17
2022/08/03 12:54:34;;;;;;;;;;;;;;;;;;7313276;19;162958;-16
2022/08/03 12:57:08;;;;;;;5.28;3.65;;;;;;;;;;7315011;19;162964;-16
2022/08/03 12:59:42;;;;;;;5.22;3.33;;;;;;;;;;7314554;19;154589;-16
2022/08/03 13:02:17;;;;;;;4.10;3.20;;;;;;;;;;7314797;19;154714;-16
2022/08/03 13:04:52;;;;;;;4.75;3.08;;;;;;;;;;7313400;19;162688;-16
2022/08/03 13:07:24;;;;;;;3.95;3.30;;;;;;;;;;7314331;19;162771;-16
2022/08/03 13:09:57;;;;;;;5.30;3.10;;;;;;;;;;7314604;19;154616;-16
2022/08/03 13:12:30;;;;;;;5.30;3.38;;;;;;;;;;7314189;19;153919;-16
2022/08/03 13:15:02;;;;;;;4.43;3.40;;;;;;;;;;7311741;19;162754;-16
2022/08/03 13:17:33;;;;;;;5.20;3.37;;;;;;;;;;7314041;19;162867;-16
2022/08/03 13:20:09;;;;;;;6.95;3.30;;;;;;;;;;7313562;19;154681;-16
2022/08/03 13:22:41;;;;;;;5.82;3.28;;;;;;;;;;7312702;19;153551;-15
2022/08/03 13:25:12;;;;;;;;;;;;;;;;;;7314002;19;162313;-15
2022/08/03 13:27:44;;;;;;;6.93;3.30;;;;;;;;;;7311036;19;162488;-16
2022/08/03 13:30:16;;;;;;;5.07;3.77;;;;;;;;;;7314076;19;154959;-17
2022/08/03 13:32:48;;;;;;;8.80;3.25;;;;;;;;;;7312196;19;154333;-16
2022/08/03 13:35:21;;;;;;;8.95;3.10;;;;;;;;;;7310863;19;162822;-16
2022/08/03 13:37:53;;;;;;;17.27;3.63;;;;;;;;;;7312804;19;163609;-15
2022/08/03 13:40:24;;;;;;;10.18;3.00;;;;;;;;;;7313277;19;154603;-16
2022/08/03 13:42:55;;;;;;;13.80;3.38;;;;;;;;;;7313464;19;153993;-16
2022/08/03 13:45:27;;;;;;;517.58;259.10;;;;;;;;;;7312472;19;162903;-17
2022/08/03 13:47:59;;;;;;;892.60;489.45;;;;;;;;;;7311474;19;163373;-16
2022/08/03 13:50:33;;;;;;;937.55;532.10;;;;;;;;;;7313376;19;154537;-15
2022/08/03 13:53:04;;;;;;;744.95;406.02;;;;;;;;;;7313017;19;154143;-16
2022/08/03 13:55:35;;;;;;;749.47;399.85;;;;;;;;;;7309992;19;162881;-17
2022/08/03 13:58:10;;;;;;;730.67;402.95;;;;;;;;;;7312904;19;162881;-16
2022/08/03 14:00:42;;;;;;;640.05;341.70;;;;;;;;;;7312828;19;154838;-16
2022/08/03 14:03:13;;;;;;;577.20;309.55;;;;;;;;;;7312779;19;154163;-16
2022/08/03 14:05:47;;;;;;;553.85;297.73;;;;;;;;;;7310993;19;162294;-15
2022/08/03 14:08:19;;;;;;;536.03;286.10;;;;;;;;;;7312341;19;162788;-17
2022/08/03 14:10:50;;;;;;;514.70;270.73;;;;;;;;;;7312898;19;154972;-15
2022/08/03 14:13:22;;;;;;;517.95;281.00;;;;;;;;;;7312156;19;154741;-15
2022/08/03 14:15:56;;;;;;;499.23;262.17;;;;;;;;;;7309430;19;162640;-14
2022/08/03 14:18:27;;;;;;;494.50;252.30;;;;;;;;;;7312191;19;162824;-14
2022/08/03 14:21:04;;;;;;;478.93;245.80;;;;;;;;;;7311206;19;154691;-15
2022/08/03 14:23:37;;;;;;;479.17;240.32;;;;;;;;;;7309912;19;154249;-14
2022/08/03 14:26:09;;;;;;;459.38;230.63;;;;;;;;;;7311409;19;162389;-15
2022/08/03 14:28:40;;;;;;;440.55;217.80;;;;;;;;;;7311853;19;162790;-15
2022/08/03 14:31:11;;;;;;;442.40;220.32;;;;;;;;;;7312195;19;154483;-15
2022/08/03 14:33:43;;;;;;;431.10;215.20;;;;;;;;;;7310880;19;154619;-16
2022/08/03 14:36:17;;;;;;;417.45;203.90;;;;;;;;;;7309093;19;162688;-15
2022/08/03 14:38:48;;;;;;;404.90;196.02;;;;;;;;;;7309439;19;162878;-15
2022/08/03 14:41:19;;;;;;;402.95;190.95;;;;;;;;;;7311213;19;154918;-15
2022/08/03 14:43:54;;;;;;;369.98;185.98;;;;;;;;;;7311593;19;154083;-15
2022/08/03 14:46:25;;;;;;;373.67;172.20;;;;;;;;;;7311265;19;162224;-15
2022/08/03 14:48:57;;;;;;;351.17;167.50;;;;;;;;;;7311110;19;162736;-17
2022/08/03 14:51:31;;;;;;;397.67;192.32;;;;;;;;;;7311633;19;154037;-16
2022/08/03 14:54:02;;;;;;;389.70;183.65;;;;;;;;;;7311166;19;154681;-15
2022/08/03 14:56:34;;;;;;;390.02;185.07;;;;;;;;;;7308370;19;162630;-15
2022/08/03 14:59:05;;;;;;;380.38;181.25;;;;;;;;;;7322326;19;163770;-16
2022/08/03 15:01:36;;;;;;;385.90;183.65;;;;;;;;;;7324364;19;154774;-16
2022/08/03 15:04:07;;;;;;;382.15;177.02;;;;;;;;;;7325043;19;154144;-15
2022/08/03 15:06:41;;;;;;;384.17;179.77;;;;;;;;;;7325175;19;162386;-16
2022/08/03 15:09:12;;;;;;;366.33;180.10;;;;;;;;;;7324565;19;163538;-16
2022/08/03 15:11:53;;;;;;;381.58;177.43;;;;;;;;;;7324863;19;155041;-16
2022/08/03 15:14:24;;;;;;;372.50;181.70;;;;;;;;;;7324651;19;154737;-16
2022/08/03 15:16:56;;;;;;;368.23;177.27;;;;;;;;;;7324892;19;162282;-16